Terminal Aerodrome Forecast
Issued by NWS Wilmington, NC

Current Version | Previous Version | Text Only | Print | Product List | Glossary On
Versions: 1 2 3 4 5 6 7 8 9 10 11 12 13
000
FTUS42 KILM 271100
TAFFLO
TAF
KFLO 271120Z 2712/2812 00000KT P6SM SKC
     FM271400 VRB04KT P6SM SCT250
     FM280700 00000KT P6SM BKN090=

USA.gov is the U.S. government's official web portal to all federal, state and local government web resources and services.